TAF for FNLU provided by aerobaticsweb.org
Current time: Friday, 24 Sep, 2021, 15:50 UTC
(This may take a minute, please be patient)


The most recent TAF forecast from FNLU in our system was generated at
2021/09/24 12:29
The forecast is:
FNLU 2021/09/24 12:29
TAF FNLU 241100Z 2412/2518 27010KT 9999 FEW020
BECMG 2418/2420 21006KT
TEMPO 2502/2507 VRB02KT BKN020
BECMG 2510/2512 28010KT



access provided by Dr. Guenther Eichhorn at aerobaticsweb.org